sensor_id;sensor_type;location;lat;lon;timestamp;P1;durP1;ratioP1;P2;durP2;ratioP2
14858;SDS011;7521;51.700;6.874;2023-04-15T00:00:39;8.90;;;5.28;;
14858;SDS011;7521;51.700;6.874;2023-04-15T00:03:45;6.77;;;5.20;;
14858;SDS011;7521;51.700;6.874;2023-04-15T00:06:50;8.37;;;5.77;;
14858;SDS011;7521;51.700;6.874;2023-04-15T00:09:58;8.60;;;5.30;;
14858;SDS011;7521;51.700;6.874;2023-04-15T00:13:04;10.07;;;4.83;;
14858;SDS011;7521;51.700;6.874;2023-04-15T00:16:09;7.90;;;5.07;;
14858;SDS011;7521;51.700;6.874;2023-04-15T00:19:14;9.00;;;5.60;;
14858;SDS011;7521;51.700;6.874;2023-04-15T00:22:19;7.45;;;4.70;;
14858;SDS011;7521;51.700;6.874;2023-04-15T00:25:25;8.90;;;5.23;;
14858;SDS011;7521;51.700;6.874;2023-04-15T00:28:30;6.70;;;4.93;;
14858;SDS011;7521;51.700;6.874;2023-04-15T00:31:36;8.23;;;5.43;;
14858;SDS011;7521;51.700;6.874;2023-04-15T00:34:41;6.00;;;5.10;;
14858;SDS011;7521;51.700;6.874;2023-04-15T00:37:46;8.60;;;5.40;;
14858;SDS011;7521;51.700;6.874;2023-04-15T00:40:52;9.60;;;5.43;;
14858;SDS011;7521;51.700;6.874;2023-04-15T00:43:57;7.60;;;5.37;;
14858;SDS011;7521;51.700;6.874;2023-04-15T00:47:03;9.67;;;5.53;;
14858;SDS011;7521;51.700;6.874;2023-04-15T00:50:09;6.73;;;5.47;;
14858;SDS011;7521;51.700;6.874;2023-04-15T00:53:14;7.00;;;5.57;;
14858;SDS011;7521;51.700;6.874;2023-04-15T00:56:20;9.52;;;5.95;;
14858;SDS011;7521;51.700;6.874;2023-04-15T00:59:25;6.40;;;5.60;;
14858;SDS011;7521;51.700;6.874;2023-04-15T01:02:31;10.73;;;6.33;;
14858;SDS011;7521;51.700;6.874;2023-04-15T01:05:37;8.23;;;6.07;;
14858;SDS011;7521;51.700;6.874;2023-04-15T01:08:42;9.00;;;5.57;;
14858;SDS011;7521;51.700;6.874;2023-04-15T01:11:48;7.37;;;5.90;;
14858;SDS011;7521;51.700;6.874;2023-04-15T01:14:53;7.73;;;5.83;;
14858;SDS011;7521;51.700;6.874;2023-04-15T01:17:59;8.27;;;5.40;;
14858;SDS011;7521;51.700;6.874;2023-04-15T01:21:05;8.83;;;5.63;;
14858;SDS011;7521;51.700;6.874;2023-04-15T01:24:10;6.23;;;5.47;;
14858;SDS011;7521;51.700;6.874;2023-04-15T01:27:17;6.83;;;5.33;;
14858;SDS011;7521;51.700;6.874;2023-04-15T01:30:22;11.13;;;6.20;;
14858;SDS011;7521;51.700;6.874;2023-04-15T01:33:27;6.70;;;5.50;;
14858;SDS011;7521;51.700;6.874;2023-04-15T01:36:32;7.45;;;5.60;;
14858;SDS011;7521;51.700;6.874;2023-04-15T01:39:38;7.97;;;5.87;;
14858;SDS011;7521;51.700;6.874;2023-04-15T01:42:43;8.57;;;5.47;;
14858;SDS011;7521;51.700;6.874;2023-04-15T01:45:48;8.93;;;5.60;;
14858;SDS011;7521;51.700;6.874;2023-04-15T01:48:53;7.90;;;6.43;;
14858;SDS011;7521;51.700;6.874;2023-04-15T01:51:58;7.00;;;5.87;;
14858;SDS011;7521;51.700;6.874;2023-04-15T01:55:04;8.20;;;6.07;;
14858;SDS011;7521;51.700;6.874;2023-04-15T01:58:10;7.57;;;5.90;;
14858;SDS011;7521;51.700;6.874;2023-04-15T02:01:15;7.97;;;6.30;;
14858;SDS011;7521;51.700;6.874;2023-04-15T02:04:23;12.53;;;6.03;;
14858;SDS011;7521;51.700;6.874;2023-04-15T02:07:28;10.82;;;5.97;;
14858;SDS011;7521;51.700;6.874;2023-04-15T02:10:36;8.37;;;6.17;;
14858;SDS011;7521;51.700;6.874;2023-04-15T02:13:41;8.20;;;6.25;;
14858;SDS011;7521;51.700;6.874;2023-04-15T02:16:46;7.38;;;5.82;;
14858;SDS011;7521;51.700;6.874;2023-04-15T02:19:51;9.07;;;6.65;;
14858;SDS011;7521;51.700;6.874;2023-04-15T02:22:56;9.80;;;5.95;;
14858;SDS011;7521;51.700;6.874;2023-04-15T02:26:01;8.77;;;6.37;;
14858;SDS011;7521;51.700;6.874;2023-04-15T02:29:07;9.63;;;7.00;;
14858;SDS011;7521;51.700;6.874;2023-04-15T02:32:12;8.15;;;6.00;;
14858;SDS011;7521;51.700;6.874;2023-04-15T02:35:17;10.80;;;7.03;;
14858;SDS011;7521;51.700;6.874;2023-04-15T02:38:23;10.10;;;7.40;;
14858;SDS011;7521;51.700;6.874;2023-04-15T02:41:29;9.07;;;6.63;;
14858;SDS011;7521;51.700;6.874;2023-04-15T02:44:34;12.20;;;7.40;;
14858;SDS011;7521;51.700;6.874;2023-04-15T02:47:40;9.70;;;7.03;;
14858;SDS011;7521;51.700;6.874;2023-04-15T02:50:45;8.47;;;7.03;;
14858;SDS011;7521;51.700;6.874;2023-04-15T02:53:51;10.53;;;7.43;;
14858;SDS011;7521;51.700;6.874;2023-04-15T02:56:56;8.95;;;7.20;;
14858;SDS011;7521;51.700;6.874;2023-04-15T03:00:02;10.48;;;7.18;;
14858;SDS011;7521;51.700;6.874;2023-04-15T03:03:08;8.97;;;7.33;;
14858;SDS011;7521;51.700;6.874;2023-04-15T03:06:14;7.30;;;6.50;;
14858;SDS011;7521;51.700;6.874;2023-04-15T03:09:19;12.00;;;7.55;;
14858;SDS011;7521;51.700;6.874;2023-04-15T03:12:24;9.88;;;7.70;;
14858;SDS011;7521;51.700;6.874;2023-04-15T03:15:31;10.77;;;7.83;;
14858;SDS011;7521;51.700;6.874;2023-04-15T03:18:36;10.93;;;7.53;;
14858;SDS011;7521;51.700;6.874;2023-04-15T03:21:42;10.17;;;7.77;;
14858;SDS011;7521;51.700;6.874;2023-04-15T03:24:47;9.25;;;7.78;;
14858;SDS011;7521;51.700;6.874;2023-04-15T03:27:52;11.20;;;8.37;;
14858;SDS011;7521;51.700;6.874;2023-04-15T03:30:58;13.77;;;8.60;;
14858;SDS011;7521;51.700;6.874;2023-04-15T03:34:03;11.10;;;8.30;;
14858;SDS011;7521;51.700;6.874;2023-04-15T03:37:08;14.55;;;8.95;;
14858;SDS011;7521;51.700;6.874;2023-04-15T03:40:13;12.93;;;9.23;;
14858;SDS011;7521;51.700;6.874;2023-04-15T03:43:18;12.95;;;9.27;;
14858;SDS011;7521;51.700;6.874;2023-04-15T03:46:23;11.48;;;9.15;;
14858;SDS011;7521;51.700;6.874;2023-04-15T03:49:29;11.67;;;9.43;;
14858;SDS011;7521;51.700;6.874;2023-04-15T03:52:34;12.77;;;8.63;;
14858;SDS011;7521;51.700;6.874;2023-04-15T03:55:40;11.33;;;8.70;;
14858;SDS011;7521;51.700;6.874;2023-04-15T03:58:45;12.10;;;7.70;;
14858;SDS011;7521;51.700;6.874;2023-04-15T04:01:50;11.20;;;9.35;;
14858;SDS011;7521;51.700;6.874;2023-04-15T04:04:55;12.77;;;9.87;;
14858;SDS011;7521;51.700;6.874;2023-04-15T04:08:01;14.02;;;9.45;;
14858;SDS011;7521;51.700;6.874;2023-04-15T04:11:06;14.10;;;9.87;;
14858;SDS011;7521;51.700;6.874;2023-04-15T04:14:11;17.60;;;10.53;;
14858;SDS011;7521;51.700;6.874;2023-04-15T04:17:17;14.50;;;9.88;;
14858;SDS011;7521;51.700;6.874;2023-04-15T04:20:22;14.48;;;10.15;;
14858;SDS011;7521;51.700;6.874;2023-04-15T04:23:27;15.85;;;10.20;;
14858;SDS011;7521;51.700;6.874;2023-04-15T04:26:32;13.20;;;10.60;;
14858;SDS011;7521;51.700;6.874;2023-04-15T04:29:37;12.20;;;9.77;;
14858;SDS011;7521;51.700;6.874;2023-04-15T04:32:42;17.10;;;9.57;;
14858;SDS011;7521;51.700;6.874;2023-04-15T04:35:48;14.53;;;10.47;;
14858;SDS011;7521;51.700;6.874;2023-04-15T04:38:53;14.05;;;10.52;;
14858;SDS011;7521;51.700;6.874;2023-04-15T04:41:58;13.00;;;10.20;;
14858;SDS011;7521;51.700;6.874;2023-04-15T04:45:03;13.00;;;10.37;;
14858;SDS011;7521;51.700;6.874;2023-04-15T04:48:09;17.33;;;12.17;;
14858;SDS011;7521;51.700;6.874;2023-04-15T04:51:14;18.07;;;12.07;;
14858;SDS011;7521;51.700;6.874;2023-04-15T04:54:19;16.77;;;12.77;;
14858;SDS011;7521;51.700;6.874;2023-04-15T04:57:25;15.70;;;11.33;;
14858;SDS011;7521;51.700;6.874;2023-04-15T05:00:30;14.77;;;12.20;;
14858;SDS011;7521;51.700;6.874;2023-04-15T05:03:35;15.23;;;12.30;;
14858;SDS011;7521;51.700;6.874;2023-04-15T05:06:41;16.20;;;12.73;;
14858;SDS011;7521;51.700;6.874;2023-04-15T05:09:47;16.27;;;12.68;;
14858;SDS011;7521;51.700;6.874;2023-04-15T05:12:52;16.27;;;13.30;;
14858;SDS011;7521;51.700;6.874;2023-04-15T05:15:57;18.00;;;12.82;;
14858;SDS011;7521;51.700;6.874;2023-04-15T05:19:02;16.52;;;12.93;;
14858;SDS011;7521;51.700;6.874;2023-04-15T05:22:07;16.85;;;12.98;;
14858;SDS011;7521;51.700;6.874;2023-04-15T05:25:12;18.50;;;13.50;;
14858;SDS011;7521;51.700;6.874;2023-04-15T05:28:18;17.15;;;13.23;;
14858;SDS011;7521;51.700;6.874;2023-04-15T05:31:23;19.47;;;13.63;;
14858;SDS011;7521;51.700;6.874;2023-04-15T05:34:28;17.37;;;12.57;;
14858;SDS011;7521;51.700;6.874;2023-04-15T05:37:33;16.70;;;12.82;;
14858;SDS011;7521;51.700;6.874;2023-04-15T05:40:38;20.90;;;14.90;;
14858;SDS011;7521;51.700;6.874;2023-04-15T05:43:44;15.80;;;12.97;;
14858;SDS011;7521;51.700;6.874;2023-04-15T05:46:49;19.65;;;14.20;;
14858;SDS011;7521;51.700;6.874;2023-04-15T05:49:54;16.23;;;13.25;;
14858;SDS011;7521;51.700;6.874;2023-04-15T05:52:59;17.57;;;12.60;;
14858;SDS011;7521;51.700;6.874;2023-04-15T05:56:05;16.33;;;14.17;;
14858;SDS011;7521;51.700;6.874;2023-04-15T05:59:10;20.20;;;14.30;;
14858;SDS011;7521;51.700;6.874;2023-04-15T06:02:15;17.15;;;13.00;;
14858;SDS011;7521;51.700;6.874;2023-04-15T06:05:21;17.50;;;13.93;;
14858;SDS011;7521;51.700;6.874;2023-04-15T06:08:27;17.53;;;14.27;;
14858;SDS011;7521;51.700;6.874;2023-04-15T06:11:32;19.33;;;14.38;;
14858;SDS011;7521;51.700;6.874;2023-04-15T06:14:37;16.30;;;13.30;;
14858;SDS011;7521;51.700;6.874;2023-04-15T06:17:43;19.00;;;14.87;;
14858;SDS011;7521;51.700;6.874;2023-04-15T06:20:48;21.67;;;13.98;;
14858;SDS011;7521;51.700;6.874;2023-04-15T06:23:53;20.30;;;14.77;;
14858;SDS011;7521;51.700;6.874;2023-04-15T06:26:58;16.40;;;14.63;;
14858;SDS011;7521;51.700;6.874;2023-04-15T06:30:04;17.98;;;14.43;;
14858;SDS011;7521;51.700;6.874;2023-04-15T06:33:09;19.00;;;13.20;;
14858;SDS011;7521;51.700;6.874;2023-04-15T06:36:14;17.63;;;13.53;;
14858;SDS011;7521;51.700;6.874;2023-04-15T06:39:20;16.17;;;12.63;;
14858;SDS011;7521;51.700;6.874;2023-04-15T06:42:25;17.95;;;12.35;;
14858;SDS011;7521;51.700;6.874;2023-04-15T06:45:30;13.48;;;11.50;;
14858;SDS011;7521;51.700;6.874;2023-04-15T06:48:36;15.93;;;12.20;;
14858;SDS011;7521;51.700;6.874;2023-04-15T06:51:42;12.57;;;10.47;;
14858;SDS011;7521;51.700;6.874;2023-04-15T06:54:47;15.47;;;11.33;;
14858;SDS011;7521;51.700;6.874;2023-04-15T06:57:52;13.75;;;10.55;;
14858;SDS011;7521;51.700;6.874;2023-04-15T07:00:57;13.73;;;10.73;;
14858;SDS011;7521;51.700;6.874;2023-04-15T07:04:03;11.60;;;9.73;;
14858;SDS011;7521;51.700;6.874;2023-04-15T07:07:09;11.90;;;9.80;;
14858;SDS011;7521;51.700;6.874;2023-04-15T07:10:14;12.57;;;9.45;;
14858;SDS011;7521;51.700;6.874;2023-04-15T07:13:19;12.63;;;9.53;;
14858;SDS011;7521;51.700;6.874;2023-04-15T07:16:24;13.00;;;9.30;;
14858;SDS011;7521;51.700;6.874;2023-04-15T07:19:30;12.27;;;8.90;;
14858;SDS011;7521;51.700;6.874;2023-04-15T07:22:35;10.50;;;8.40;;
14858;SDS011;7521;51.700;6.874;2023-04-15T07:25:40;13.02;;;8.57;;
14858;SDS011;7521;51.700;6.874;2023-04-15T07:28:45;9.07;;;7.60;;
14858;SDS011;7521;51.700;6.874;2023-04-15T07:31:51;9.03;;;7.40;;
14858;SDS011;7521;51.700;6.874;2023-04-15T07:34:56;10.52;;;8.60;;
14858;SDS011;7521;51.700;6.874;2023-04-15T07:38:01;14.57;;;8.87;;
14858;SDS011;7521;51.700;6.874;2023-04-15T07:41:06;10.77;;;8.50;;
14858;SDS011;7521;51.700;6.874;2023-04-15T07:44:12;13.20;;;8.38;;
14858;SDS011;7521;51.700;6.874;2023-04-15T07:47:17;10.50;;;7.95;;
14858;SDS011;7521;51.700;6.874;2023-04-15T07:50:22;13.00;;;7.93;;
14858;SDS011;7521;51.700;6.874;2023-04-15T07:53:27;11.90;;;8.07;;
14858;SDS011;7521;51.700;6.874;2023-04-15T07:56:32;11.75;;;8.32;;
14858;SDS011;7521;51.700;6.874;2023-04-15T07:59:38;12.80;;;8.60;;
14858;SDS011;7521;51.700;6.874;2023-04-15T08:02:44;12.73;;;8.70;;
14858;SDS011;7521;51.700;6.874;2023-04-15T08:05:50;11.17;;;7.60;;
14858;SDS011;7521;51.700;6.874;2023-04-15T08:08:56;9.73;;;7.67;;
14858;SDS011;7521;51.700;6.874;2023-04-15T08:12:01;9.47;;;6.83;;
14858;SDS011;7521;51.700;6.874;2023-04-15T08:15:07;9.07;;;6.70;;
14858;SDS011;7521;51.700;6.874;2023-04-15T08:18:13;8.87;;;6.50;;
14858;SDS011;7521;51.700;6.874;2023-04-15T08:21:18;12.95;;;7.25;;
14858;SDS011;7521;51.700;6.874;2023-04-15T08:24:24;8.40;;;6.23;;
14858;SDS011;7521;51.700;6.874;2023-04-15T08:27:30;9.47;;;6.70;;
14858;SDS011;7521;51.700;6.874;2023-04-15T08:30:35;8.70;;;6.97;;
14858;SDS011;7521;51.700;6.874;2023-04-15T08:33:40;10.10;;;7.07;;
14858;SDS011;7521;51.700;6.874;2023-04-15T08:36:46;10.40;;;6.50;;
14858;SDS011;7521;51.700;6.874;2023-04-15T08:39:51;9.25;;;6.60;;
14858;SDS011;7521;51.700;6.874;2023-04-15T08:42:56;7.73;;;6.30;;
14858;SDS011;7521;51.700;6.874;2023-04-15T08:46:02;8.83;;;6.27;;
14858;SDS011;7521;51.700;6.874;2023-04-15T08:49:11;7.63;;;6.13;;
14858;SDS011;7521;51.700;6.874;2023-04-15T08:52:19;9.30;;;6.53;;
14858;SDS011;7521;51.700;6.874;2023-04-15T08:55:28;6.47;;;5.73;;
14858;SDS011;7521;51.700;6.874;2023-04-15T08:58:34;9.23;;;5.80;;
14858;SDS011;7521;51.700;6.874;2023-04-15T09:01:40;6.67;;;5.90;;
14858;SDS011;7521;51.700;6.874;2023-04-15T09:04:45;6.87;;;6.13;;
14858;SDS011;7521;51.700;6.874;2023-04-15T09:07:51;8.57;;;6.00;;
14858;SDS011;7521;51.700;6.874;2023-04-15T09:10:56;6.93;;;5.85;;
14858;SDS011;7521;51.700;6.874;2023-04-15T09:14:01;9.38;;;7.68;;
14858;SDS011;7521;51.700;6.874;2023-04-15T09:17:08;7.68;;;6.55;;
14858;SDS011;7521;51.700;6.874;2023-04-15T09:20:14;7.50;;;6.10;;
14858;SDS011;7521;51.700;6.874;2023-04-15T09:23:20;6.73;;;6.03;;
14858;SDS011;7521;51.700;6.874;2023-04-15T09:26:36;8.60;;;6.27;;
14858;SDS011;7521;51.700;6.874;2023-04-15T09:29:41;7.03;;;5.50;;
14858;SDS011;7521;51.700;6.874;2023-04-15T09:32:53;6.57;;;5.50;;
14858;SDS011;7521;51.700;6.874;2023-04-15T09:36:00;7.40;;;5.37;;
14858;SDS011;7521;51.700;6.874;2023-04-15T09:39:05;7.37;;;5.47;;
14858;SDS011;7521;51.700;6.874;2023-04-15T09:42:11;6.50;;;5.73;;
14858;SDS011;7521;51.700;6.874;2023-04-15T09:45:16;8.25;;;6.55;;
14858;SDS011;7521;51.700;6.874;2023-04-15T09:48:22;6.82;;;6.10;;
14858;SDS011;7521;51.700;6.874;2023-04-15T09:51:34;6.53;;;5.83;;
14858;SDS011;7521;51.700;6.874;2023-04-15T09:54:39;7.20;;;6.20;;
14858;SDS011;7521;51.700;6.874;2023-04-15T09:57:45;7.80;;;7.00;;
14858;SDS011;7521;51.700;6.874;2023-04-15T10:00:54;8.00;;;6.67;;
14858;SDS011;7521;51.700;6.874;2023-04-15T10:04:03;7.63;;;6.50;;
14858;SDS011;7521;51.700;6.874;2023-04-15T10:07:09;6.67;;;5.90;;
14858;SDS011;7521;51.700;6.874;2023-04-15T10:10:15;6.93;;;5.90;;
14858;SDS011;7521;51.700;6.874;2023-04-15T10:13:22;7.67;;;5.60;;
14858;SDS011;7521;51.700;6.874;2023-04-15T10:16:27;6.43;;;5.50;;
14858;SDS011;7521;51.700;6.874;2023-04-15T10:19:33;8.03;;;6.23;;
14858;SDS011;7521;51.700;6.874;2023-04-15T10:22:40;7.63;;;5.67;;
14858;SDS011;7521;51.700;6.874;2023-04-15T10:25:46;5.90;;;5.30;;
14858;SDS011;7521;51.700;6.874;2023-04-15T10:28:51;6.97;;;5.90;;
14858;SDS011;7521;51.700;6.874;2023-04-15T10:31:57;7.30;;;5.57;;
14858;SDS011;7521;51.700;6.874;2023-04-15T10:35:03;7.97;;;5.70;;
14858;SDS011;7521;51.700;6.874;2023-04-15T10:41:33;5.57;;;4.93;;
14858;SDS011;7521;51.700;6.874;2023-04-15T10:44:43;6.70;;;5.77;;
14858;SDS011;7521;51.700;6.874;2023-04-15T10:47:53;7.50;;;6.10;;
14858;SDS011;7521;51.700;6.874;2023-04-15T10:51:01;6.90;;;6.03;;
14858;SDS011;7521;51.700;6.874;2023-04-15T10:54:12;7.40;;;5.37;;
14858;SDS011;7521;51.700;6.874;2023-04-15T10:57:21;6.33;;;5.50;;
14858;SDS011;7521;51.700;6.874;2023-04-15T11:00:28;7.37;;;4.57;;
14858;SDS011;7521;51.700;6.874;2023-04-15T11:03:36;7.97;;;6.00;;
14858;SDS011;7521;51.700;6.874;2023-04-15T11:06:45;7.27;;;5.33;;
14858;SDS011;7521;51.700;6.874;2023-04-15T11:09:50;6.50;;;5.60;;
14858;SDS011;7521;51.700;6.874;2023-04-15T11:12:56;5.88;;;5.20;;
14858;SDS011;7521;51.700;6.874;2023-04-15T11:16:02;5.30;;;4.60;;
14858;SDS011;7521;51.700;6.874;2023-04-15T11:19:07;6.97;;;5.13;;
14858;SDS011;7521;51.700;6.874;2023-04-15T11:22:12;5.38;;;4.85;;
14858;SDS011;7521;51.700;6.874;2023-04-15T11:25:21;7.17;;;5.00;;
14858;SDS011;7521;51.700;6.874;2023-04-15T11:28:29;5.40;;;4.37;;
14858;SDS011;7521;51.700;6.874;2023-04-15T11:31:35;4.37;;;3.87;;
14858;SDS011;7521;51.700;6.874;2023-04-15T11:34:40;7.60;;;4.57;;
14858;SDS011;7521;51.700;6.874;2023-04-15T11:37:46;4.73;;;4.10;;
14858;SDS011;7521;51.700;6.874;2023-04-15T11:40:52;5.83;;;4.00;;
14858;SDS011;7521;51.700;6.874;2023-04-15T11:43:57;4.45;;;3.70;;
14858;SDS011;7521;51.700;6.874;2023-04-15T11:47:20;4.85;;;4.07;;
14858;SDS011;7521;51.700;6.874;2023-04-15T11:50:25;5.00;;;4.30;;
14858;SDS011;7521;51.700;6.874;2023-04-15T11:53:43;4.13;;;3.72;;
14858;SDS011;7521;51.700;6.874;2023-04-15T11:56:50;5.20;;;3.70;;
14858;SDS011;7521;51.700;6.874;2023-04-15T11:59:56;7.13;;;4.43;;
14858;SDS011;7521;51.700;6.874;2023-04-15T12:03:13;6.40;;;5.10;;
14858;SDS011;7521;51.700;6.874;2023-04-15T12:06:21;5.80;;;4.17;;
14858;SDS011;7521;51.700;6.874;2023-04-15T12:09:27;5.67;;;4.23;;
14858;SDS011;7521;51.700;6.874;2023-04-15T12:12:32;5.40;;;4.53;;
14858;SDS011;7521;51.700;6.874;2023-04-15T12:15:38;6.18;;;4.10;;
14858;SDS011;7521;51.700;6.874;2023-04-15T12:18:46;8.17;;;3.77;;
14858;SDS011;7521;51.700;6.874;2023-04-15T12:21:53;9.53;;;3.97;;
14858;SDS011;7521;51.700;6.874;2023-04-15T12:25:01;7.40;;;3.90;;
14858;SDS011;7521;51.700;6.874;2023-04-15T12:28:10;6.33;;;4.40;;
14858;SDS011;7521;51.700;6.874;2023-04-15T12:31:16;5.77;;;3.80;;
14858;SDS011;7521;51.700;6.874;2023-04-15T12:34:30;5.43;;;3.38;;
14858;SDS011;7521;51.700;6.874;2023-04-15T12:37:36;4.63;;;3.00;;
14858;SDS011;7521;51.700;6.874;2023-04-15T12:40:41;5.97;;;3.90;;
14858;SDS011;7521;51.700;6.874;2023-04-15T12:43:46;4.60;;;3.43;;
14858;SDS011;7521;51.700;6.874;2023-04-15T12:46:51;5.32;;;3.25;;
14858;SDS011;7521;51.700;6.874;2023-04-15T12:49:57;6.37;;;4.67;;
14858;SDS011;7521;51.700;6.874;2023-04-15T12:53:02;6.43;;;3.63;;
14858;SDS011;7521;51.700;6.874;2023-04-15T12:56:07;5.67;;;3.53;;
14858;SDS011;7521;51.700;6.874;2023-04-15T12:59:13;9.27;;;4.07;;
14858;SDS011;7521;51.700;6.874;2023-04-15T13:02:18;6.33;;;3.30;;
14858;SDS011;7521;51.700;6.874;2023-04-15T13:05:25;4.00;;;3.13;;
14858;SDS011;7521;51.700;6.874;2023-04-15T13:08:30;4.47;;;3.30;;
14858;SDS011;7521;51.700;6.874;2023-04-15T13:11:35;4.40;;;3.17;;
14858;SDS011;7521;51.700;6.874;2023-04-15T13:14:41;4.83;;;3.43;;
14858;SDS011;7521;51.700;6.874;2023-04-15T13:17:46;6.27;;;2.90;;
14858;SDS011;7521;51.700;6.874;2023-04-15T13:20:51;4.80;;;3.20;;
14858;SDS011;7521;51.700;6.874;2023-04-15T13:23:58;5.03;;;2.97;;
14858;SDS011;7521;51.700;6.874;2023-04-15T13:27:03;5.73;;;3.20;;
14858;SDS011;7521;51.700;6.874;2023-04-15T13:30:08;5.50;;;3.20;;
14858;SDS011;7521;51.700;6.874;2023-04-15T13:33:15;3.60;;;2.93;;
14858;SDS011;7521;51.700;6.874;2023-04-15T13:36:20;4.77;;;3.10;;
14858;SDS011;7521;51.700;6.874;2023-04-15T13:39:25;6.33;;;3.10;;
14858;SDS011;7521;51.700;6.874;2023-04-15T13:42:31;3.77;;;2.40;;
14858;SDS011;7521;51.700;6.874;2023-04-15T13:45:36;3.27;;;2.50;;
14858;SDS011;7521;51.700;6.874;2023-04-15T13:48:41;4.27;;;2.50;;
14858;SDS011;7521;51.700;6.874;2023-04-15T13:51:47;4.83;;;3.00;;
14858;SDS011;7521;51.700;6.874;2023-04-15T13:54:52;4.43;;;3.00;;
14858;SDS011;7521;51.700;6.874;2023-04-15T13:57:57;3.03;;;2.70;;
14858;SDS011;7521;51.700;6.874;2023-04-15T14:01:02;3.23;;;2.90;;
14858;SDS011;7521;51.700;6.874;2023-04-15T14:04:08;4.23;;;2.83;;
14858;SDS011;7521;51.700;6.874;2023-04-15T14:07:13;6.03;;;2.60;;
14858;SDS011;7521;51.700;6.874;2023-04-15T14:10:21;5.37;;;2.67;;
14858;SDS011;7521;51.700;6.874;2023-04-15T14:13:26;3.40;;;2.80;;
14858;SDS011;7521;51.700;6.874;2023-04-15T14:16:32;5.22;;;2.80;;
14858;SDS011;7521;51.700;6.874;2023-04-15T14:19:37;5.50;;;2.30;;
14858;SDS011;7521;51.700;6.874;2023-04-15T14:22:45;5.73;;;3.73;;
14858;SDS011;7521;51.700;6.874;2023-04-15T14:25:50;5.37;;;3.87;;
14858;SDS011;7521;51.700;6.874;2023-04-15T14:28:56;5.13;;;3.37;;
14858;SDS011;7521;51.700;6.874;2023-04-15T14:32:03;8.13;;;3.80;;
14858;SDS011;7521;51.700;6.874;2023-04-15T14:35:09;5.83;;;3.63;;
14858;SDS011;7521;51.700;6.874;2023-04-15T14:38:14;7.43;;;4.20;;
14858;SDS011;7521;51.700;6.874;2023-04-15T14:41:19;6.73;;;3.13;;
14858;SDS011;7521;51.700;6.874;2023-04-15T14:44:26;6.03;;;2.60;;
14858;SDS011;7521;51.700;6.874;2023-04-15T14:47:31;3.53;;;2.60;;
14858;SDS011;7521;51.700;6.874;2023-04-15T14:50:36;3.78;;;2.35;;
14858;SDS011;7521;51.700;6.874;2023-04-15T14:53:42;3.17;;;2.60;;
14858;SDS011;7521;51.700;6.874;2023-04-15T14:56:47;6.00;;;3.00;;
14858;SDS011;7521;51.700;6.874;2023-04-15T14:59:53;4.93;;;2.60;;
14858;SDS011;7521;51.700;6.874;2023-04-15T15:03:00;4.97;;;3.80;;
14858;SDS011;7521;51.700;6.874;2023-04-15T15:06:05;3.77;;;2.27;;
14858;SDS011;7521;51.700;6.874;2023-04-15T15:09:11;3.93;;;2.90;;
14858;SDS011;7521;51.700;6.874;2023-04-15T15:12:16;6.20;;;2.95;;
14858;SDS011;7521;51.700;6.874;2023-04-15T15:15:21;5.50;;;3.53;;
14858;SDS011;7521;51.700;6.874;2023-04-15T15:18:26;7.27;;;2.70;;
14858;SDS011;7521;51.700;6.874;2023-04-15T15:21:32;3.97;;;2.83;;
14858;SDS011;7521;51.700;6.874;2023-04-15T15:24:40;4.27;;;2.50;;
14858;SDS011;7521;51.700;6.874;2023-04-15T15:27:45;6.20;;;2.53;;
14858;SDS011;7521;51.700;6.874;2023-04-15T15:30:50;5.43;;;2.70;;
14858;SDS011;7521;51.700;6.874;2023-04-15T15:33:55;8.00;;;5.70;;
14858;SDS011;7521;51.700;6.874;2023-04-15T15:37:01;3.88;;;2.63;;
14858;SDS011;7521;51.700;6.874;2023-04-15T15:40:06;4.10;;;2.55;;
14858;SDS011;7521;51.700;6.874;2023-04-15T15:43:11;9.30;;;5.30;;
14858;SDS011;7521;51.700;6.874;2023-04-15T15:46:17;5.88;;;2.58;;
14858;SDS011;7521;51.700;6.874;2023-04-15T15:49:24;6.03;;;3.17;;
14858;SDS011;7521;51.700;6.874;2023-04-15T15:52:29;9.30;;;4.80;;
14858;SDS011;7521;51.700;6.874;2023-04-15T15:55:37;4.43;;;2.43;;
14858;SDS011;7521;51.700;6.874;2023-04-15T15:58:42;6.82;;;3.95;;
14858;SDS011;7521;51.700;6.874;2023-04-15T16:01:48;5.67;;;4.27;;
14858;SDS011;7521;51.700;6.874;2023-04-15T16:04:54;5.97;;;3.33;;
14858;SDS011;7521;51.700;6.874;2023-04-15T16:07:59;9.20;;;3.00;;
14858;SDS011;7521;51.700;6.874;2023-04-15T16:11:04;5.37;;;2.80;;
14858;SDS011;7521;51.700;6.874;2023-04-15T16:14:13;5.23;;;2.67;;
14858;SDS011;7521;51.700;6.874;2023-04-15T16:17:24;9.67;;;6.67;;
14858;SDS011;7521;51.700;6.874;2023-04-15T16:20:29;7.40;;;5.80;;
14858;SDS011;7521;51.700;6.874;2023-04-15T16:23:37;6.27;;;2.20;;
14858;SDS011;7521;51.700;6.874;2023-04-15T16:26:42;3.28;;;2.20;;
14858;SDS011;7521;51.700;6.874;2023-04-15T16:29:47;8.43;;;2.13;;
14858;SDS011;7521;51.700;6.874;2023-04-15T16:32:52;5.30;;;2.10;;
14858;SDS011;7521;51.700;6.874;2023-04-15T16:35:58;7.13;;;2.37;;
14858;SDS011;7521;51.700;6.874;2023-04-15T16:39:03;7.90;;;2.90;;
14858;SDS011;7521;51.700;6.874;2023-04-15T16:42:08;9.63;;;3.45;;
14858;SDS011;7521;51.700;6.874;2023-04-15T16:45:14;6.60;;;2.93;;
14858;SDS011;7521;51.700;6.874;2023-04-15T16:48:19;30.90;;;18.13;;
14858;SDS011;7521;51.700;6.874;2023-04-15T16:51:24;93.67;;;42.70;;
14858;SDS011;7521;51.700;6.874;2023-04-15T16:54:30;16.30;;;8.50;;
14858;SDS011;7521;51.700;6.874;2023-04-15T16:57:37;6.67;;;3.50;;
14858;SDS011;7521;51.700;6.874;2023-04-15T17:00:42;28.38;;;12.45;;
14858;SDS011;7521;51.700;6.874;2023-04-15T17:03:47;13.23;;;5.30;;
14858;SDS011;7521;51.700;6.874;2023-04-15T17:06:53;9.03;;;4.37;;
14858;SDS011;7521;51.700;6.874;2023-04-15T17:09:58;9.30;;;2.65;;
14858;SDS011;7521;51.700;6.874;2023-04-15T17:13:03;7.27;;;2.87;;
14858;SDS011;7521;51.700;6.874;2023-04-15T17:16:08;8.18;;;3.03;;
14858;SDS011;7521;51.700;6.874;2023-04-15T17:19:13;10.93;;;3.20;;
14858;SDS011;7521;51.700;6.874;2023-04-15T17:22:18;7.65;;;2.15;;
14858;SDS011;7521;51.700;6.874;2023-04-15T17:25:24;6.53;;;2.07;;
14858;SDS011;7521;51.700;6.874;2023-04-15T17:28:29;7.77;;;2.10;;
14858;SDS011;7521;51.700;6.874;2023-04-15T17:31:35;6.57;;;2.20;;
14858;SDS011;7521;51.700;6.874;2023-04-15T17:34:40;4.57;;;1.90;;
14858;SDS011;7521;51.700;6.874;2023-04-15T17:37:45;5.90;;;1.95;;
14858;SDS011;7521;51.700;6.874;2023-04-15T17:40:50;4.70;;;1.95;;
14858;SDS011;7521;51.700;6.874;2023-04-15T17:43:55;12.48;;;9.57;;
14858;SDS011;7521;51.700;6.874;2023-04-15T17:47:00;5.47;;;1.90;;
14858;SDS011;7521;51.700;6.874;2023-04-15T17:50:06;7.83;;;2.73;;
14858;SDS011;7521;51.700;6.874;2023-04-15T17:53:11;9.97;;;2.63;;
14858;SDS011;7521;51.700;6.874;2023-04-15T17:56:16;6.97;;;2.33;;
14858;SDS011;7521;51.700;6.874;2023-04-15T17:59:22;11.77;;;3.03;;
14858;SDS011;7521;51.700;6.874;2023-04-15T18:02:27;5.33;;;2.27;;
14858;SDS011;7521;51.700;6.874;2023-04-15T18:05:32;5.85;;;2.55;;
14858;SDS011;7521;51.700;6.874;2023-04-15T18:08:37;7.63;;;2.90;;
14858;SDS011;7521;51.700;6.874;2023-04-15T18:11:43;10.02;;;2.50;;
14858;SDS011;7521;51.700;6.874;2023-04-15T18:14:49;7.53;;;3.03;;
14858;SDS011;7521;51.700;6.874;2023-04-15T18:17:54;9.07;;;3.40;;
14858;SDS011;7521;51.700;6.874;2023-04-15T18:20:59;9.67;;;3.40;;
14858;SDS011;7521;51.700;6.874;2023-04-15T18:24:05;5.97;;;3.33;;
14858;SDS011;7521;51.700;6.874;2023-04-15T18:27:10;6.60;;;3.50;;
14858;SDS011;7521;51.700;6.874;2023-04-15T18:30:15;12.18;;;4.20;;
14858;SDS011;7521;51.700;6.874;2023-04-15T18:33:21;10.45;;;3.85;;
14858;SDS011;7521;51.700;6.874;2023-04-15T18:36:26;13.53;;;10.03;;
14858;SDS011;7521;51.700;6.874;2023-04-15T18:39:31;18.88;;;13.23;;
14858;SDS011;7521;51.700;6.874;2023-04-15T18:42:37;18.03;;;8.57;;
14858;SDS011;7521;51.700;6.874;2023-04-15T18:45:42;11.27;;;6.80;;
14858;SDS011;7521;51.700;6.874;2023-04-15T18:48:47;11.13;;;4.23;;
14858;SDS011;7521;51.700;6.874;2023-04-15T18:51:52;11.73;;;3.15;;